Brisbane - Nearby METAR Reports

YBBN - Brisbane Intl Ar, Australia
Distance from station: NNE 11km
Updated: 11/08/2022 10:00
Few Clouds
Few Clouds
 Wind from SE
Wind: SE 15 km/h
Temperature: 19°C
Dew Point: 10°C
Humidity: 56%
Barometer: 1025 hPa
Clouds: Few Clouds
Visibility: 10 km
Cloud details: Few Clouds 610 m
2022/08/11 00:00 YBBN 110000Z 14008KT 9999 FEW020 19/10 Q1025
YAMB - Amberley, Australia
Distance from station: WSW 42km
Updated: 11/08/2022 10:00
Mostly cloudy
Mostly cloudy
 Wind from SW
Wind: SW 4 km/h
Temperature: 17°C
Dew Point: 10°C
Humidity: 64%
Barometer: 1025 hPa
Clouds: Mostly cloudy
Visibility: 10 km
Cloud details: Few Clouds 1067 m
Partly cloudy 5182 m
Mostly cloudy 6096 m
2022/08/11 00:00 YAMB 110000Z 23002KT 9999 FEW035 SCT170 BKN200 17/10 Q1025
 
YBCG - Coolangatta Aws, Australia
Distance from station: SSE 102km
Updated: 11/08/2022 10:00
Mostly cloudy
Mostly cloudy
 Wind from S
Wind: S 19 km/h
Temperature: 18°C
Dew Point: 10°C
Humidity: 60%
Barometer: 1026 hPa
Clouds: Mostly cloudy
Visibility: 10 km
Cloud details: Mostly cloudy 1463 m
2022/08/11 00:00 YBCG 110000Z AUTO 18010KT 9999 // BKN048 18/10 Q1026 RF00.0/000.0